Time;durP1;ratioP1;P1;durP2;ratioP2;P2;SDS_P1;SDS_P2;PMS_P1;PMS_P2;Temp;Humidity;BMP_temperature;BMP_pressure;BME280_temperature;BME280_humidity;BME280_pressure;Samples;Min_cycle;Max_cycle;Signal;HPM_P1;HPM_P2
2022/03/14 00:00:48;;;;;;;53.03;18.20;;;3.10;45.60;;;;;;4794033;29;20054;-75
2022/03/14 00:03:16;;;;;;;50.47;16.80;;;3.10;45.00;;;;;;4823873;29;20070;-75
2022/03/14 00:05:44;;;;;;;52.72;17.08;;;3.20;45.60;;;;;;4810597;29;20083;-75
2022/03/14 00:08:13;;;;;;;40.05;16.67;;;2.90;45.50;;;;;;4788958;29;20577;-75
2022/03/14 00:10:42;;;;;;;46.42;16.75;;;2.90;46.30;;;;;;4790257;29;20171;-75
2022/03/14 00:13:10;;;;;;;48.15;17.27;;;2.80;46.10;;;;;;4791796;29;20085;-75
2022/03/14 00:15:40;;;;;;;48.85;16.88;;;2.90;46.10;;;;;;4806592;29;20065;-75
2022/03/14 00:18:08;;;;;;;51.55;15.75;;;2.90;46.10;;;;;;4805920;29;20137;-75
2022/03/14 00:20:35;;;;;;;44.50;16.83;;;3.00;45.20;;;;;;4791267;29;20048;-74
2022/03/14 00:23:02;;;;;;;44.42;17.20;;;3.00;45.30;;;;;;4792282;29;20050;-75
2022/03/14 00:25:30;;;;;;;48.20;16.20;;;2.90;45.60;;;;;;4805997;29;20050;-75
2022/03/14 00:27:57;;;;;;;42.97;15.10;;;2.90;45.90;;;;;;4789716;29;20517;-75
2022/03/14 00:30:25;;;;;;;42.15;15.57;;;3.50;46.00;;;;;;4788783;29;20057;-75
2022/03/14 00:32:52;;;;;;;46.70;16.73;;;2.80;45.80;;;;;;4811615;29;20055;-75
2022/03/14 00:35:19;;;;;;;42.63;15.70;;;2.70;46.00;;;;;;4807368;29;20490;-75
2022/03/14 00:37:46;;;;;;;40.85;14.20;;;2.70;46.40;;;;;;4807140;29;20619;-75
2022/03/14 00:40:14;;;;;;;47.75;15.30;;;2.70;46.80;;;;;;4807213;29;20515;-75
2022/03/14 00:42:48;;;;;;;48.70;15.85;;;2.80;46.30;;;;;;4792047;29;20053;-75
2022/03/14 00:45:15;;;;;;;49.53;15.65;;;2.80;46.50;;;;;;4791499;29;20054;-75
2022/03/14 00:47:42;;;;;;;41.35;14.80;;;2.80;46.90;;;;;;4807499;29;20406;-77
2022/03/14 00:50:10;;;;;;;43.95;16.15;;;2.80;46.20;;;;;;4806700;29;20061;-77
2022/03/14 00:52:37;;;;;;;42.78;15.93;;;2.80;45.90;;;;;;4795409;29;20190;-77
2022/03/14 00:55:04;;;;;;;47.58;17.80;;;2.80;46.90;;;;;;4777567;29;20601;-77
2022/03/14 00:57:31;;;;;;;42.40;16.27;;;2.70;46.30;;;;;;4792087;29;22019;-77
2022/03/14 01:00:01;;;;;;;44.88;16.38;;;2.70;46.20;;;;;;4794923;29;20160;-77
2022/03/14 01:02:28;;;;;;;51.88;16.40;;;2.70;46.30;;;;;;4794475;29;21290;-77
2022/03/14 01:04:55;;;;;;;50.40;17.50;;;2.70;46.40;;;;;;4794813;29;20050;-77
2022/03/14 01:07:22;;;;;;;48.65;16.17;;;2.70;47.00;;;;;;4794371;29;20053;-77
2022/03/14 01:09:49;;;;;;;49.22;16.70;;;2.60;47.00;;;;;;4808871;29;20111;-75
2022/03/14 01:12:17;;;;;;;46.55;16.20;;;2.60;47.30;;;;;;4811419;29;20046;-76
2022/03/14 01:14:44;;;;;;;43.80;16.10;;;2.50;47.40;;;;;;4795625;29;20422;-75
2022/03/14 01:17:11;;;;;;;43.45;16.33;;;2.50;47.80;;;;;;4795165;29;20439;-75
2022/03/14 01:19:38;;;;;;;43.25;15.02;;;2.40;48.20;;;;;;4825222;29;20047;-76
2022/03/14 01:22:10;;;;;;;41.33;15.02;;;2.40;47.70;;;;;;4810755;29;20121;-76
2022/03/14 01:24:43;;;;;;;39.85;14.43;;;2.30;47.60;;;;;;4811093;29;20501;-75
2022/03/14 01:27:11;;;;;;;46.63;15.23;;;2.30;47.50;;;;;;4824038;29;20058;-76
2022/03/14 01:29:38;;;;;;;37.05;13.43;;;3.70;47.50;;;;;;4808439;29;20050;-75
2022/03/14 01:32:06;;;;;;;35.22;13.25;;;2.30;46.90;;;;;;4796991;29;20069;-76
2022/03/14 01:34:34;;;;;;;35.08;13.18;;;2.40;46.70;;;;;;4826110;29;20514;-76
2022/03/14 01:37:02;;;;;;;33.13;12.88;;;2.50;47.10;;;;;;4811457;29;20127;-76
2022/03/14 01:39:30;;;;;;;33.53;12.77;;;2.50;45.70;;;;;;4793540;29;20057;-76
2022/03/14 01:41:58;;;;;;;37.40;12.98;;;2.50;45.90;;;;;;4792590;29;20046;-77
2022/03/14 01:44:26;;;;;;;30.48;11.15;;;2.50;46.50;;;;;;4810752;29;20048;-76
2022/03/14 01:46:54;;;;;;;31.17;10.98;;;2.40;45.90;;;;;;4805171;29;20142;-76
2022/03/14 01:49:22;;;;;;;33.33;10.95;;;2.60;45.60;;;;;;4797262;29;20125;-76
2022/03/14 01:51:58;;;;;;;35.65;11.90;;;2.40;46.20;;;;;;4793179;29;20825;-76
2022/03/14 01:54:26;;;;;;;40.03;10.85;;;2.40;46.40;;;;;;4808259;29;20042;-76
2022/03/14 01:56:53;;;;;;;33.83;11.80;;;2.40;46.50;;;;;;4810137;29;20073;-75
2022/03/14 01:59:21;;;;;;;30.08;11.27;;;2.40;46.40;;;;;;4792660;29;20188;-76
2022/03/14 02:01:49;;;;;;;33.03;11.35;;;2.20;46.80;;;;;;4791722;29;20046;-76
2022/03/14 02:04:18;;;;;;;27.13;10.55;;;2.20;47.40;;;;;;4791903;29;20071;-77
2022/03/14 02:06:46;;;;;;;30.15;11.52;;;2.30;46.80;;;;;;4809502;29;20061;-75
2022/03/14 02:09:14;;;;;;;28.20;10.23;;;2.30;46.40;;;;;;4812506;29;20038;-76
2022/03/14 02:11:56;;;;;;;35.80;12.90;;;2.30;47.90;;;;;;4791934;29;20069;-75
2022/03/14 02:14:24;;;;;;;32.30;11.60;;;2.30;47.00;;;;;;4786905;29;20054;-76
2022/03/14 02:16:52;;;;;;;34.22;10.23;;;2.20;47.30;;;;;;4776591;29;20046;-76
2022/03/14 02:19:20;;;;;;;28.27;9.40;;;2.40;46.80;;;;;;4755473;29;20718;-76
2022/03/14 02:21:47;;;;;;;28.08;10.15;;;2.10;47.00;;;;;;4772840;29;20470;-76
2022/03/14 02:24:14;;;;;;;28.15;9.43;;;2.10;47.10;;;;;;4772159;29;20070;-75
2022/03/14 02:26:44;;;;;;;33.58;10.05;;;2.10;47.40;;;;;;4788418;29;20631;-76
2022/03/14 02:29:12;;;;;;;29.55;9.73;;;2.10;47.10;;;;;;4755045;29;20077;-76
2022/03/14 02:31:39;;;;;;;23.88;9.43;;;2.00;46.90;;;;;;4786074;29;20047;-75
2022/03/14 02:34:07;;;;;;;31.58;10.20;;;2.10;46.80;;;;;;4786554;29;20070;-76
2022/03/14 02:36:39;;;;;;;38.67;11.43;;;2.00;48.10;;;;;;4771959;29;20086;-76
2022/03/14 02:39:07;;;;;;;31.33;11.52;;;1.90;47.90;;;;;;4770869;29;20512;-76
2022/03/14 02:41:35;;;;;;;33.00;11.40;;;2.00;48.30;;;;;;4788450;29;20056;-76
2022/03/14 02:44:09;;;;;;;28.08;11.23;;;1.90;48.20;;;;;;4785756;29;20074;-76
2022/03/14 02:46:37;;;;;;;30.75;10.70;;;1.90;48.10;;;;;;4775239;29;20058;-75
2022/03/14 02:49:05;;;;;;;31.88;11.27;;;1.80;48.30;;;;;;4771846;29;20067;-75
2022/03/14 02:51:34;;;;;;;27.02;9.48;;;1.70;48.90;;;;;;4774145;29;20416;-76
2022/03/14 02:54:05;;;;;;;30.23;11.68;;;1.80;48.40;;;;;;4771753;29;20142;-76
2022/03/14 02:56:33;;;;;;;31.08;11.20;;;1.90;47.70;;;;;;4788305;29;20059;-76
2022/03/14 02:59:01;;;;;;;36.78;11.13;;;1.90;48.60;;;;;;4773176;29;20055;-75
2022/03/14 03:01:28;;;;;;;26.00;9.98;;;1.90;47.90;;;;;;4786584;29;20039;-76
2022/03/14 03:03:56;;;;;;;27.05;9.45;;;1.90;48.80;;;;;;4774518;29;20044;-76
2022/03/14 03:06:23;;;;;;;28.70;8.90;;;1.90;47.60;;;;;;4786354;29;20047;-76
2022/03/14 03:08:52;;;;;;;28.60;10.40;;;1.20;47.20;;;;;;4787805;29;20043;-76
2022/03/14 03:11:20;;;;;;;28.10;10.43;;;1.70;48.00;;;;;;4769669;29;22000;-76
2022/03/14 03:13:48;;;;;;;27.40;9.07;;;1.30;47.70;;;;;;4800027;29;20434;-77
2022/03/14 03:16:16;;;;;;;26.73;9.05;;;1.60;48.10;;;;;;4793180;29;20046;-77
2022/03/14 03:18:44;;;;;;;29.17;9.30;;;1.70;48.30;;;;;;4805950;29;20077;-76
2022/03/14 03:21:12;;;;;;;26.30;9.43;;;1.60;48.90;;;;;;4808592;29;20065;-76
2022/03/14 03:23:40;;;;;;;30.73;9.80;;;1.60;49.20;;;;;;4808120;29;20062;-76
2022/03/14 03:26:08;;;;;;;28.55;10.00;;;1.70;49.80;;;;;;4805622;29;20043;-76
2022/03/14 03:28:35;;;;;;;29.98;10.20;;;1.50;49.20;;;;;;4808610;29;20749;-75
2022/03/14 03:31:11;;;;;;;37.60;11.95;;;1.40;49.40;;;;;;4807047;29;20083;-76
2022/03/14 03:33:39;;;;;;;33.10;10.57;;;1.50;49.60;;;;;;4790373;29;20054;-76
2022/03/14 03:36:07;;;;;;;35.90;10.82;;;1.50;49.60;;;;;;4808336;29;20050;-76
2022/03/14 03:38:35;;;;;;;33.75;11.90;;;1.60;49.60;;;;;;4811238;29;21150;-76
2022/03/14 03:41:03;;;;;;;28.40;11.88;;;1.50;50.20;;;;;;4808649;29;20038;-76
2022/03/14 03:43:30;;;;;;;32.58;10.45;;;1.50;49.60;;;;;;4809137;29;20065;-76
2022/03/14 03:45:58;;;;;;;32.40;10.60;;;1.60;49.80;;;;;;4792616;29;20043;-75
2022/03/14 03:48:26;;;;;;;28.55;9.35;;;1.50;49.90;;;;;;4809911;29;20387;-76
2022/03/14 03:50:53;;;;;;;28.52;10.00;;;1.50;49.80;;;;;;4790273;29;20701;-76
2022/03/14 03:53:21;;;;;;;30.95;10.85;;;1.60;49.10;;;;;;4808723;29;20058;-76
2022/03/14 03:55:49;;;;;;;26.85;8.90;;;1.60;49.20;;;;;;4791475;29;20054;-76
2022/03/14 03:58:17;;;;;;;30.45;9.63;;;1.40;49.30;;;;;;4811552;29;20044;-76
2022/03/14 04:00:44;;;;;;;26.42;10.15;;;1.40;49.50;;;;;;4791104;29;20046;-75
2022/03/14 04:03:11;;;;;;;29.50;9.82;;;1.50;49.30;;;;;;4807312;29;20047;-76
2022/03/14 04:05:41;;;;;;;25.52;9.18;;;1.40;49.50;;;;;;4810310;29;20047;-76
2022/03/14 04:08:11;;;;;;;27.25;8.45;;;1.40;49.30;;;;;;4804909;29;20964;-76
2022/03/14 04:10:39;;;;;;;24.05;9.90;;;1.50;48.90;;;;;;4793391;29;20058;-76
2022/03/14 04:13:07;;;;;;;24.73;9.77;;;1.50;49.40;;;;;;4809078;29;20078;-76
2022/03/14 04:15:49;;;;;;;22.70;8.60;;;1.60;49.00;;;;;;4808495;29;20052;-76
2022/03/14 04:18:25;;;;;;;25.52;8.55;;;1.60;48.60;;;;;;4805595;29;20050;-76
2022/03/14 04:20:53;;;;;;;26.48;9.35;;;1.50;48.30;;;;;;4810603;29;20074;-75
2022/03/14 04:23:21;;;;;;;23.05;9.10;;;1.60;48.10;;;;;;4789655;29;20126;-76
2022/03/14 04:25:49;;;;;;;25.42;9.40;;;0.60;47.60;;;;;;4792162;29;20047;-76
2022/03/14 04:28:17;;;;;;;22.58;8.23;;;1.70;48.10;;;;;;4780053;29;20108;-76
2022/03/14 04:30:44;;;;;;;26.45;10.10;;;1.70;48.30;;;;;;4810144;29;20049;-76
2022/03/14 04:33:11;;;;;;;27.90;9.57;;;1.70;47.90;;;;;;4791190;29;20053;-75
2022/03/14 04:35:39;;;;;;;24.83;9.18;;;1.70;48.10;;;;;;4809903;29;20085;-75
2022/03/14 04:38:08;;;;;;;26.80;10.13;;;1.40;47.80;;;;;;4807944;29;20038;-76
2022/03/14 04:40:36;;;;;;;21.42;9.88;;;1.60;48.30;;;;;;4792008;29;20494;-75
2022/03/14 04:43:08;;;;;;;27.30;10.02;;;1.80;47.80;;;;;;4806430;29;20521;-75
2022/03/14 04:45:39;;;;;;;30.90;9.52;;;1.60;47.70;;;;;;4810293;29;20057;-76
2022/03/14 04:48:10;;;;;;;28.45;9.63;;;1.70;48.10;;;;;;4822467;29;20061;-76
2022/03/14 04:50:39;;;;;;;22.80;8.85;;;1.60;48.30;;;;;;4792207;29;20059;-76
2022/03/14 04:53:06;;;;;;;24.33;9.13;;;1.70;48.30;;;;;;4807946;29;20062;-76
2022/03/14 04:55:35;;;;;;;23.67;8.15;;;1.50;48.70;;;;;;4807740;29;20144;-76
2022/03/14 04:58:06;;;;;;;23.58;7.93;;;1.60;48.30;;;;;;4806391;29;20499;-76
2022/03/14 05:00:34;;;;;;;27.27;9.00;;;1.30;48.30;;;;;;4807008;29;20046;-76
2022/03/14 05:03:05;;;;;;;20.45;7.30;;;1.70;48.80;;;;;;4792509;29;20530;-76
2022/03/14 05:05:36;;;;;;;18.40;6.87;;;1.70;48.50;;;;;;4809646;29;20046;-76
2022/03/14 05:08:04;;;;;;;22.00;6.80;;;1.80;47.80;;;;;;4820040;29;20049;-75
2022/03/14 05:10:32;;;;;;;22.33;8.05;;;1.90;48.20;;;;;;4778170;29;20061;-76
2022/03/14 05:13:00;;;;;;;19.30;8.10;;;1.90;47.90;;;;;;4808266;29;20522;-76
2022/03/14 05:15:29;;;;;;;23.45;9.23;;;2.30;47.90;;;;;;4806073;29;20054;-76
2022/03/14 05:18:01;;;;;;;25.08;7.53;;;1.80;47.90;;;;;;4808195;29;20119;-76
2022/03/14 05:20:28;;;;;;;21.05;8.82;;;1.70;47.80;;;;;;4808605;29;20054;-76
2022/03/14 05:22:56;;;;;;;26.33;8.93;;;1.70;48.40;;;;;;4792362;29;20051;-76
2022/03/14 05:25:23;;;;;;;21.05;9.27;;;1.60;49.10;;;;;;4790453;29;20069;-76
2022/03/14 05:27:53;;;;;;;22.85;8.98;;;1.80;48.10;;;;;;4809061;29;20054;-76
2022/03/14 05:30:22;;;;;;;25.13;8.63;;;1.80;48.30;;;;;;4820093;29;20053;-76
2022/03/14 05:32:49;;;;;;;23.33;8.70;;;1.80;47.90;;;;;;4809628;29;20038;-77
2022/03/14 05:35:16;;;;;;;25.55;9.88;;;1.80;47.80;;;;;;4794923;29;20061;-76
2022/03/14 05:37:44;;;;;;;32.15;11.52;;;1.80;47.80;;;;;;4795137;29;20054;-76
2022/03/14 05:40:15;;;;;;;33.17;14.32;;;1.90;47.80;;;;;;4813157;29;20046;-76
2022/03/14 05:42:45;;;;;;;25.52;10.32;;;2.00;47.80;;;;;;4812255;29;20042;-77
2022/03/14 05:45:13;;;;;;;30.15;10.73;;;1.80;47.70;;;;;;4797015;29;20051;-76
2022/03/14 05:47:41;;;;;;;36.53;10.30;;;1.80;47.70;;;;;;4795260;29;20569;-76
2022/03/14 05:50:08;;;;;;;33.05;11.45;;;2.00;47.80;;;;;;4791867;29;20046;-77
2022/03/14 05:52:36;;;;;;;36.25;11.63;;;2.10;47.40;;;;;;4811456;29;20058;-77
2022/03/14 05:55:05;;;;;;;34.55;12.82;;;2.00;47.40;;;;;;4794907;29;20051;-77
2022/03/14 05:57:33;;;;;;;33.35;12.98;;;2.20;47.20;;;;;;4812419;29;20078;-76
2022/03/14 06:00:01;;;;;;;34.72;14.07;;;2.30;46.70;;;;;;4790643;29;20056;-77
2022/03/14 06:02:28;;;;;;;37.47;14.05;;;2.20;46.50;;;;;;4795377;29;20054;-76
2022/03/14 06:04:55;;;;;;;42.83;14.20;;;2.30;46.60;;;;;;4794544;29;20114;-76
2022/03/14 06:07:22;;;;;;;38.85;15.52;;;2.30;46.50;;;;;;4811997;29;20046;-77
2022/03/14 06:09:50;;;;;;;41.67;14.07;;;2.40;46.80;;;;;;4812606;29;20054;-77
2022/03/14 06:12:25;;;;;;;38.67;13.60;;;2.60;46.10;;;;;;4810104;29;20153;-77
2022/03/14 06:15:00;;;;;;;35.20;11.82;;;2.70;45.90;;;;;;4793240;29;20083;-77
2022/03/14 06:17:31;;;;;;;30.70;12.23;;;2.80;45.60;;;;;;4795312;29;20047;-76
2022/03/14 06:19:58;;;;;;;26.73;10.80;;;2.80;45.60;;;;;;4797148;29;20054;-75
2022/03/14 06:22:25;;;;;;;36.05;11.50;;;3.00;45.40;;;;;;4793216;29;20107;-76
2022/03/14 06:24:52;;;;;;;29.10;11.63;;;3.10;45.00;;;;;;4809174;29;20053;-76
2022/03/14 06:27:24;;;;;;;27.00;10.48;;;3.10;45.00;;;;;;4812351;29;20042;-76
2022/03/14 06:29:53;;;;;;;30.40;11.55;;;3.20;44.80;;;;;;4794080;29;20628;-76
2022/03/14 06:32:20;;;;;;;27.83;11.52;;;3.30;44.60;;;;;;4809353;29;20055;-76
2022/03/14 06:34:48;;;;;;;29.30;11.07;;;3.50;44.50;;;;;;4808996;29;20054;-77
2022/03/14 06:37:17;;;;;;;32.15;12.48;;;3.50;44.60;;;;;;4810782;29;20046;-76
2022/03/14 06:39:44;;;;;;;30.08;11.65;;;3.60;43.90;;;;;;4808285;29;20050;-75
2022/03/14 06:42:12;;;;;;;30.63;11.13;;;3.70;44.30;;;;;;4792579;29;20061;-75
2022/03/14 06:44:42;;;;;;;36.25;12.98;;;3.70;43.60;;;;;;4792618;29;20046;-75
2022/03/14 06:47:12;;;;;;;27.77;10.02;;;3.80;43.80;;;;;;4809137;29;20122;-75
2022/03/14 06:49:42;;;;;;;24.23;10.00;;;3.90;44.20;;;;;;4807145;29;20724;-75
2022/03/14 06:52:09;;;;;;;24.58;9.88;;;4.10;43.50;;;;;;4810509;29;20124;-75
2022/03/14 06:54:38;;;;;;;29.48;9.80;;;4.30;43.30;;;;;;4807339;29;20047;-76
2022/03/14 06:57:09;;;;;;;24.90;9.85;;;4.30;43.40;;;;;;4808154;29;20137;-75
2022/03/14 06:59:36;;;;;;;25.05;11.55;;;4.40;43.30;;;;;;4807020;29;20083;-75
2022/03/14 07:02:04;;;;;;;22.60;10.60;;;4.50;44.10;;;;;;4775275;29;20565;-75
2022/03/14 07:04:33;;;;;;;29.48;11.27;;;4.50;43.70;;;;;;4790883;29;20083;-75
2022/03/14 07:07:03;;;;;;;22.52;10.27;;;4.70;44.10;;;;;;4810716;29;20589;-76
2022/03/14 07:09:31;;;;;;;24.05;9.63;;;4.80;43.80;;;;;;4791014;29;20038;-75
2022/03/14 07:11:58;;;;;;;24.95;9.68;;;4.80;43.10;;;;;;4792225;29;20144;-75
2022/03/14 07:14:25;;;;;;;23.38;10.07;;;4.90;43.00;;;;;;4808909;29;20556;-75
2022/03/14 07:16:53;;;;;;;22.02;8.82;;;5.00;43.00;;;;;;4793846;29;20395;-75
2022/03/14 07:19:22;;;;;;;26.25;8.85;;;5.00;43.00;;;;;;4807761;29;20046;-75
2022/03/14 07:21:49;;;;;;;20.77;8.93;;;5.10;42.80;;;;;;4805003;29;20458;-76
2022/03/14 07:24:16;;;;;;;26.67;9.95;;;5.20;43.30;;;;;;4793491;29;20042;-75
2022/03/14 07:26:43;;;;;;;28.48;10.80;;;5.20;43.50;;;;;;4803565;29;20768;-75
2022/03/14 07:29:12;;;;;;;20.42;9.35;;;5.20;43.20;;;;;;4811522;29;20042;-75
2022/03/14 07:31:41;;;;;;;18.15;8.85;;;5.40;43.00;;;;;;4810555;29;20357;-76
2022/03/14 07:34:09;;;;;;;18.48;7.05;;;5.50;41.70;;;;;;4811391;29;20103;-76
2022/03/14 07:36:37;;;;;;;16.48;7.28;;;5.70;41.30;;;;;;4791555;29;20069;-75
2022/03/14 07:39:05;;;;;;;16.02;7.00;;;5.80;41.20;;;;;;4795218;29;20086;-74
2022/03/14 07:41:33;;;;;;;17.98;8.00;;;6.00;40.80;;;;;;4807632;29;20046;-75
2022/03/14 07:44:00;;;;;;;15.30;8.23;;;6.10;40.40;;;;;;4807755;29;20061;-76
2022/03/14 07:46:28;;;;;;;16.17;7.40;;;6.20;40.90;;;;;;4805266;29;20077;-77
2022/03/14 07:48:57;;;;;;;14.38;6.45;;;6.30;40.20;;;;;;4823065;29;20585;-75
2022/03/14 07:51:24;;;;;;;16.80;6.75;;;6.30;39.40;;;;;;4794881;29;20519;-76
2022/03/14 07:53:52;;;;;;;18.65;8.27;;;6.30;39.80;;;;;;4806436;29;20558;-74
2022/03/14 07:56:21;;;;;;;18.98;7.88;;;6.40;40.10;;;;;;4810073;29;20552;-74
2022/03/14 07:58:49;;;;;;;17.50;7.53;;;6.50;40.00;;;;;;4807344;29;20086;-75
2022/03/14 08:01:17;;;;;;;21.08;8.02;;;6.70;40.10;;;;;;4789405;29;20098;-75
2022/03/14 08:03:45;;;;;;;18.52;7.53;;;6.80;40.20;;;;;;4774157;29;20061;-76
2022/03/14 08:06:17;;;;;;;17.75;8.43;;;6.90;39.90;;;;;;4804993;29;20050;-76
2022/03/14 08:08:44;;;;;;;12.70;6.43;;;7.00;39.60;;;;;;4791048;29;20506;-76
2022/03/14 08:11:12;;;;;;;16.70;7.97;;;7.10;40.20;;;;;;4792021;29;20796;-75
2022/03/14 08:13:40;;;;;;;13.23;6.10;;;7.20;39.40;;;;;;4806400;29;20062;-75
2022/03/14 08:16:12;;;;;;;12.10;5.90;;;7.40;38.20;;;;;;4807404;29;20062;-75
2022/03/14 08:18:40;;;;;;;12.00;5.25;;;7.50;38.40;;;;;;4791268;29;20050;-75
2022/03/14 08:21:07;;;;;;;12.30;4.80;;;7.60;37.80;;;;;;4811356;29;20980;-76
2022/03/14 08:23:36;;;;;;;13.60;5.28;;;7.70;37.30;;;;;;4820070;29;21070;-76
2022/03/14 08:26:03;;;;;;;11.60;5.32;;;7.80;36.90;;;;;;4820748;29;20460;-76
2022/03/14 08:28:31;;;;;;;14.02;6.20;;;7.90;37.40;;;;;;4806399;29;20043;-76
2022/03/14 08:31:00;;;;;;;13.32;5.55;;;8.10;37.20;;;;;;4823688;29;20543;-75
2022/03/14 08:33:29;;;;;;;13.07;4.88;;;8.30;36.80;;;;;;4808291;29;20051;-76
2022/03/14 08:36:00;;;;;;;13.88;5.75;;;8.40;36.70;;;;;;4808526;29;20138;-75
2022/03/14 08:38:28;;;;;;;14.98;6.22;;;8.50;36.60;;;;;;4823149;29;20059;-74
2022/03/14 08:40:55;;;;;;;12.88;6.05;;;8.60;35.80;;;;;;4808967;29;20444;-76
2022/03/14 08:43:22;;;;;;;14.60;6.00;;;8.70;36.00;;;;;;4808888;29;20046;-76
2022/03/14 08:45:49;;;;;;;13.65;4.93;;;8.80;35.70;;;;;;4791058;29;20047;-76
2022/03/14 08:48:17;;;;;;;12.15;5.78;;;8.90;36.20;;;;;;4808325;29;20158;-76
2022/03/14 08:50:44;;;;;;;11.68;5.75;;;9.10;35.70;;;;;;4790994;29;20503;-76
2022/03/14 08:53:11;;;;;;;14.43;5.03;;;9.30;35.30;;;;;;4789764;29;20058;-76
2022/03/14 08:55:38;;;;;;;11.05;4.35;;;9.40;35.00;;;;;;4807665;29;20110;-76
2022/03/14 08:58:05;;;;;;;10.45;4.15;;;9.60;34.50;;;;;;4808295;29;20061;-76
2022/03/14 09:00:32;;;;;;;9.32;4.30;;;9.70;33.30;;;;;;4807251;29;20058;-76
2022/03/14 09:03:00;;;;;;;8.90;4.20;;;9.70;33.20;;;;;;4793373;29;20125;-76
2022/03/14 09:05:27;;;;;;;9.50;3.58;;;9.80;33.10;;;;;;4789478;29;20046;-76
2022/03/14 09:07:54;;;;;;;7.88;3.97;;;9.90;32.70;;;;;;4791417;29;20054;-76
2022/03/14 09:10:21;;;;;;;10.20;3.60;;;10.10;32.60;;;;;;4810198;29;20036;-76
2022/03/14 09:12:49;;;;;;;10.70;3.85;;;9.90;32.60;;;;;;4794734;29;20138;-75
2022/03/14 09:15:18;;;;;;;10.07;4.18;;;10.00;32.80;;;;;;4792452;29;20050;-74
2022/03/14 09:17:49;;;;;;;9.25;4.30;;;10.10;32.50;;;;;;4812059;29;20673;-75
2022/03/14 09:20:19;;;;;;;8.68;3.78;;;10.20;32.70;;;;;;4810453;29;20122;-75
2022/03/14 09:22:46;;;;;;;14.30;4.30;;;10.20;32.60;;;;;;4814846;29;20038;-76
2022/03/14 09:25:14;;;;;;;6.50;4.18;;;10.40;33.20;;;;;;4810325;29;20142;-74
2022/03/14 09:27:42;;;;;;;9.00;4.25;;;10.50;32.10;;;;;;4808588;29;20038;-74
2022/03/14 09:30:11;;;;;;;10.48;4.45;;;10.50;32.00;;;;;;4813750;29;20050;-75
2022/03/14 09:32:39;;;;;;;14.52;5.97;;;10.70;32.10;;;;;;4833263;29;20119;-76
2022/03/14 09:35:09;;;;;;;8.65;4.07;;;10.70;32.50;;;;;;4797994;29;20050;-76
2022/03/14 09:37:38;;;;;;;7.95;3.88;;;10.80;31.80;;;;;;4795371;29;20081;-76
2022/03/14 09:40:09;;;;;;;6.38;3.13;;;10.90;31.50;;;;;;4810064;29;20124;-78
2022/03/14 09:42:39;;;;;;;6.32;3.47;;;11.00;32.20;;;;;;4824166;29;20184;-78
2022/03/14 09:45:08;;;;;;;7.50;3.38;;;11.30;31.20;;;;;;4811824;29;20076;-76
2022/03/14 09:47:49;;;;;;;9.02;4.35;;;11.40;31.90;;;;;;4809302;29;20057;-76
2022/03/14 09:50:34;;;;;;;8.40;3.80;;;11.70;30.90;;;;;;4812527;29;20057;-76
2022/03/14 09:53:07;;;;;;;7.03;2.90;;;11.70;30.90;;;;;;4793047;29;20119;-76
2022/03/14 09:55:40;;;;;;;10.60;4.10;;;11.70;30.60;;;;;;4807052;29;20051;-76
2022/03/14 09:58:14;;;;;;;8.23;3.85;;;11.80;31.00;;;;;;4793458;29;20057;-76
2022/03/14 10:00:45;;;;;;;8.95;4.63;;;12.00;30.80;;;;;;4811103;29;20111;-76
2022/03/14 10:03:19;;;;;;;8.43;4.07;;;12.00;30.60;;;;;;4796787;29;20124;-78
2022/03/14 10:05:47;;;;;;;12.50;4.85;;;12.10;30.40;;;;;;4806861;29;20133;-76
2022/03/14 10:08:15;;;;;;;10.55;4.53;;;12.20;30.70;;;;;;4808527;29;20060;-74
2022/03/14 10:10:43;;;;;;;8.88;3.95;;;12.20;30.00;;;;;;4810946;29;20071;-75
2022/03/14 10:13:30;;;;;;;10.02;4.60;;;12.20;30.90;;;;;;4783585;29;20432;-76
2022/03/14 10:15:57;;;;;;;11.30;4.30;;;12.30;30.30;;;;;;4778501;29;20050;-75
2022/03/14 10:18:27;;;;;;;11.68;4.93;;;12.40;31.20;;;;;;4781944;29;20050;-75
2022/03/14 10:20:57;;;;;;;8.80;4.28;;;12.70;30.40;;;;;;4788034;29;20062;-75
2022/03/14 10:23:33;;;;;;;9.40;4.30;;;12.80;30.30;;;;;;4775766;29;22228;-78
2022/03/14 10:26:00;;;;;;;10.65;4.25;;;12.90;29.90;;;;;;4774427;29;20381;-78
2022/03/14 10:28:32;;;;;;;9.40;4.55;;;12.90;30.30;;;;;;4778101;29;20122;-79
2022/03/14 10:31:26;;;;;;;8.57;4.20;;;12.90;29.70;;;;;;4777522;29;20162;-77
2022/03/14 10:34:01;;;;;;;12.48;4.97;;;12.80;30.10;;;;;;4777195;29;20128;-75
2022/03/14 10:36:46;;;;;;;9.27;4.53;;;12.70;30.20;;;;;;4789759;29;20054;-76
2022/03/14 10:39:28;;;;;;;10.52;5.40;;;12.80;30.30;;;;;;4777726;29;20055;-75
2022/03/14 10:42:07;;;;;;;7.03;3.65;;;13.00;30.40;;;;;;4777590;29;20057;-76
2022/03/14 10:44:52;;;;;;;11.27;5.38;;;13.30;30.50;;;;;;4779791;29;20499;-76
2022/03/14 10:47:20;;;;;;;11.25;4.90;;;13.40;30.00;;;;;;4779480;29;20638;-76
2022/03/14 10:49:48;;;;;;;8.32;4.32;;;13.50;30.00;;;;;;4775699;29;20051;-76
2022/03/14 10:52:18;;;;;;;10.20;4.43;;;13.40;30.90;;;;;;4778142;29;20656;-77
2022/03/14 10:54:46;;;;;;;10.63;5.13;;;13.40;30.80;;;;;;4777032;29;20142;-75
2022/03/14 10:57:22;;;;;;;8.40;4.65;;;13.70;30.00;;;;;;4765041;29;20698;-75
2022/03/14 10:59:52;;;;;;;8.10;4.47;;;13.80;29.50;;;;;;4774256;29;20145;-81
2022/03/14 11:02:25;;;;;;;8.43;4.50;;;13.80;30.30;;;;;;4777995;29;20641;-77
2022/03/14 11:04:56;;;;;;;10.90;4.80;;;13.90;30.00;;;;;;4774157;29;20060;-78
2022/03/14 11:07:29;;;;;;;7.88;3.70;;;14.10;29.90;;;;;;4778938;29;20062;-76
2022/03/14 11:09:58;;;;;;;8.80;4.00;;;14.20;29.50;;;;;;4775357;29;20336;-75
2022/03/14 11:12:29;;;;;;;6.72;4.00;;;14.00;29.60;;;;;;4785031;29;20055;-76
2022/03/14 11:15:00;;;;;;;8.50;3.47;;;14.10;30.00;;;;;;4827479;29;20042;-76
2022/03/14 11:17:32;;;;;;;6.97;3.53;;;14.10;30.10;;;;;;4810712;29;20772;-75
2022/03/14 11:20:20;;;;;;;12.27;4.50;;;14.20;29.80;;;;;;4808664;29;20126;-77
2022/03/14 11:22:48;;;;;;;9.75;3.80;;;14.40;29.70;;;;;;4807551;29;20043;-76
2022/03/14 11:25:16;;;;;;;7.18;4.10;;;14.50;29.80;;;;;;4810272;29;20128;-76
2022/03/14 11:27:46;;;;;;;8.45;4.43;;;14.50;29.40;;;;;;4808981;29;20046;-76
2022/03/14 11:30:13;;;;;;;7.40;3.28;;;14.40;29.80;;;;;;4809461;29;20061;-77
2022/03/14 11:32:44;;;;;;;7.53;3.83;;;14.50;29.80;;;;;;4804053;29;20062;-77
2022/03/14 11:35:12;;;;;;;8.45;4.15;;;14.50;29.60;;;;;;4808153;29;20053;-77
2022/03/14 11:37:42;;;;;;;8.90;4.30;;;14.60;29.60;;;;;;4807744;29;20054;-76
2022/03/14 11:40:10;;;;;;;7.97;3.83;;;14.60;29.20;;;;;;4806922;29;20184;-76
2022/03/14 11:42:37;;;;;;;10.88;4.10;;;14.50;29.60;;;;;;4820806;29;20054;-75
2022/03/14 11:45:09;;;;;;;12.27;4.28;;;14.50;29.80;;;;;;4809488;29;20061;-76
2022/03/14 11:47:37;;;;;;;8.23;3.20;;;14.90;29.70;;;;;;4807783;29;20065;-75
2022/03/14 11:50:05;;;;;;;6.53;3.30;;;15.00;29.80;;;;;;4792728;29;20517;-76
2022/03/14 11:52:41;;;;;;;7.47;3.72;;;15.10;29.60;;;;;;4791158;29;20057;-76
2022/03/14 11:55:34;;;;;;;9.27;3.90;;;15.00;29.80;;;;;;4821908;29;20054;-75
2022/03/14 11:58:36;;;;;;;9.57;3.70;;;14.70;29.80;;;;;;4802057;29;20077;-75
2022/03/14 12:01:18;;;;;;;9.85;3.95;;;14.80;30.10;;;;;;4822078;29;20062;-75
2022/03/14 12:03:53;;;;;;;8.07;4.20;;;14.80;30.60;;;;;;4791839;29;20400;-75
2022/03/14 12:06:45;;;;;;;9.98;4.13;;;15.10;29.90;;;;;;4790583;29;20550;-74
2022/03/14 12:09:24;;;;;;;8.23;4.27;;;15.30;29.60;;;;;;4803964;29;20811;-75
2022/03/14 12:11:52;;;;;;;34.08;21.27;;;15.30;29.70;;;;;;4789068;29;20065;-76
2022/03/14 12:14:45;;;;;;;11.65;4.45;;;15.40;29.90;;;;;;4802567;29;20062;-73
2022/03/14 12:17:12;;;;;;;17.38;8.23;;;15.30;29.50;;;;;;4789266;29;20532;-73
2022/03/14 12:20:08;;;;;;;9.70;4.75;;;14.90;30.70;;;;;;4807889;29;20038;-76
2022/03/14 12:22:41;;;;;;;16.30;11.77;;;15.10;30.20;;;;;;4792582;29;20058;-76
2022/03/14 12:25:10;;;;;;;9.52;5.43;;;15.40;30.00;;;;;;4792077;29;20050;-76
2022/03/14 12:27:42;;;;;;;9.95;4.97;;;15.60;30.00;;;;;;4810588;29;20042;-76
2022/03/14 12:30:20;;;;;;;11.90;5.30;;;15.80;29.80;;;;;;4805061;29;20166;-74
2022/03/14 12:32:52;;;;;;;11.57;4.82;;;15.90;29.80;;;;;;4807831;29;20095;-76
2022/03/14 12:35:22;;;;;;;10.48;5.30;;;16.00;29.70;;;;;;4790911;29;20558;-76
2022/03/14 12:37:52;;;;;;;13.85;7.15;;;15.90;29.60;;;;;;4790920;29;20491;-77
2022/03/14 12:40:19;;;;;;;12.85;5.85;;;15.90;29.80;;;;;;4790487;29;20062;-77
2022/03/14 12:42:49;;;;;;;9.38;4.68;;;15.80;29.80;;;;;;4782032;29;20130;-74
2022/03/14 12:45:47;;;;;;;17.40;7.97;;;15.90;29.70;;;;;;4791332;29;20525;-74
2022/03/14 12:48:19;;;;;;;10.82;4.50;;;15.70;29.90;;;;;;4822427;29;21253;-74
2022/03/14 12:50:55;;;;;;;8.48;4.15;;;15.60;29.70;;;;;;4809254;29;20073;-77
2022/03/14 12:53:29;;;;;;;10.05;4.78;;;15.50;30.00;;;;;;4809124;29;20103;-73
2022/03/14 12:56:01;;;;;;;10.23;4.63;;;15.40;30.10;;;;;;4808821;29;20073;-77